createdAt,value
2018-06-15T00:00:38.257Z,16.56
2018-06-15T00:01:38.281Z,16.69
2018-06-15T00:02:38.261Z,16.66
2018-06-15T00:03:38.267Z,16.56
2018-06-15T00:04:38.267Z,16.61
2018-06-15T00:05:38.267Z,16.64
2018-06-15T00:06:38.270Z,16.60
2018-06-15T00:07:38.272Z,16.69
2018-06-15T00:08:38.280Z,16.60
2018-06-15T00:09:38.276Z,16.58
2018-06-15T00:10:38.279Z,16.71
2018-06-15T00:11:38.282Z,16.58
2018-06-15T00:12:38.285Z,16.69
2018-06-15T00:13:38.286Z,16.60
2018-06-15T00:14:38.288Z,16.64
2018-06-15T00:15:38.292Z,16.57
2018-06-15T00:16:38.294Z,16.60
2018-06-15T00:17:38.297Z,16.60
2018-06-15T00:18:38.298Z,16.68
2018-06-15T00:19:38.301Z,16.65
2018-06-15T00:20:38.304Z,16.64
2018-06-15T00:21:38.307Z,16.61
2018-06-15T00:22:38.308Z,16.65
2018-06-15T00:23:38.311Z,16.71
2018-06-15T00:24:38.313Z,16.54
2018-06-15T00:25:38.315Z,16.49
2018-06-15T00:26:38.319Z,16.53
2018-06-15T00:27:38.355Z,16.57
2018-06-15T00:28:38.323Z,16.54
2018-06-15T00:29:38.325Z,16.53
2018-06-15T00:30:38.329Z,16.54
2018-06-15T00:31:38.330Z,16.60
2018-06-15T00:32:38.333Z,16.54
2018-06-15T00:33:38.334Z,16.65
2018-06-15T00:34:38.338Z,16.57
2018-06-15T00:35:38.340Z,16.57
2018-06-15T00:36:38.343Z,16.58
2018-06-15T00:37:38.344Z,16.50
2018-06-15T00:38:38.347Z,16.58
2018-06-15T00:39:38.350Z,16.60
2018-06-15T00:40:38.352Z,16.57
2018-06-15T00:41:38.355Z,16.50
2018-06-15T00:42:38.356Z,16.58
2018-06-15T00:43:38.360Z,16.54
2018-06-15T00:44:38.361Z,16.51
2018-06-15T00:45:38.370Z,16.53
2018-06-15T00:46:38.366Z,16.57
2018-06-15T00:47:38.371Z,16.58
2018-06-15T00:48:38.371Z,16.53
2018-06-15T00:49:38.373Z,16.49
2018-06-15T00:50:38.375Z,16.57
2018-06-15T00:51:38.378Z,16.51
2018-06-15T00:52:38.381Z,16.56
2018-06-15T00:53:38.383Z,16.53
2018-06-15T00:54:38.385Z,16.53
2018-06-15T00:55:38.389Z,16.41
2018-06-15T00:56:38.391Z,16.56
2018-06-15T00:57:38.395Z,16.47
2018-06-15T00:58:38.400Z,16.49
2018-06-15T00:59:38.398Z,16.42
2018-06-15T01:00:38.401Z,16.43
2018-06-15T01:01:38.401Z,16.49
2018-06-15T01:02:38.406Z,16.42
2018-06-15T01:03:38.412Z,16.36
2018-06-15T01:04:38.412Z,16.47
2018-06-15T01:05:38.411Z,16.43
2018-06-15T01:06:38.415Z,16.39
2018-06-15T01:07:38.417Z,16.26
2018-06-15T01:08:38.420Z,16.32
2018-06-15T01:09:38.421Z,16.29
2018-06-15T01:10:38.425Z,16.16
2018-06-15T01:11:38.426Z,16.15
2018-06-15T01:12:38.429Z,16.17
2018-06-15T01:13:38.431Z,16.12
2018-06-15T01:14:38.432Z,16.17
2018-06-15T01:15:38.436Z,16.10
2018-06-15T01:16:38.438Z,16.08
2018-06-15T01:17:38.441Z,16.04
2018-06-15T01:18:38.442Z,16.00
2018-06-15T01:19:38.447Z,16.01
2018-06-15T01:20:38.453Z,15.94
2018-06-15T01:21:38.449Z,15.95
2018-06-15T01:22:38.450Z,15.94
2018-06-15T01:23:38.453Z,15.97
2018-06-15T01:24:38.458Z,15.92
2018-06-15T01:25:38.458Z,15.97
2018-06-15T01:26:38.459Z,15.92
2018-06-15T01:27:38.462Z,15.88
2018-06-15T01:28:38.464Z,15.83
2018-06-15T01:29:38.466Z,15.84
2018-06-15T01:30:38.467Z,15.73
2018-06-15T01:31:38.470Z,15.70
2018-06-15T01:32:38.472Z,15.59
2018-06-15T01:33:38.473Z,15.51
2018-06-15T01:34:38.476Z,15.51
2018-06-15T01:35:38.480Z,15.49
2018-06-15T01:36:38.480Z,15.47
2018-06-15T01:37:38.480Z,15.36
2018-06-15T01:38:38.489Z,15.40
2018-06-15T01:39:38.485Z,15.44
2018-06-15T01:40:38.490Z,15.35
2018-06-15T01:41:38.488Z,15.40
2018-06-15T01:42:38.490Z,15.42
2018-06-15T01:43:38.492Z,15.47
2018-06-15T01:44:38.494Z,15.42
2018-06-15T01:45:38.495Z,15.57
2018-06-15T01:46:38.498Z,15.54
2018-06-15T01:47:38.500Z,15.61
2018-06-15T01:48:38.509Z,15.61
2018-06-15T01:49:38.503Z,15.58
2018-06-15T01:50:38.505Z,15.62
2018-06-15T01:51:38.506Z,15.54
2018-06-15T01:52:38.508Z,15.47
2018-06-15T01:53:38.509Z,15.44
2018-06-15T01:54:38.512Z,15.42
2018-06-15T01:55:38.517Z,15.36
2018-06-15T01:56:38.516Z,15.43
2018-06-15T01:57:38.517Z,15.42
2018-06-15T01:58:38.520Z,15.51
2018-06-15T01:59:38.521Z,15.49
2018-06-15T02:00:38.522Z,15.44
2018-06-15T02:01:38.524Z,15.47
2018-06-15T02:02:38.525Z,15.43
2018-06-15T02:03:38.528Z,15.51
2018-06-15T02:04:38.529Z,15.46
2018-06-15T02:05:38.534Z,15.51
2018-06-15T02:06:38.533Z,15.51
2018-06-15T02:07:38.535Z,15.46
2018-06-15T02:08:38.537Z,15.61
2018-06-15T02:09:38.539Z,15.49
2018-06-15T02:10:38.539Z,15.52
2018-06-15T02:11:38.544Z,15.58
2018-06-15T02:12:38.544Z,15.58
2018-06-15T02:13:38.546Z,15.51
2018-06-15T02:14:38.547Z,15.55
2018-06-15T02:15:38.549Z,15.58
2018-06-15T02:16:38.552Z,15.67
2018-06-15T02:17:38.552Z,15.73
2018-06-15T02:18:38.554Z,15.75
2018-06-15T02:19:38.556Z,15.73
2018-06-15T02:20:38.558Z,15.73
2018-06-15T02:21:38.559Z,15.84
2018-06-15T02:22:38.561Z,15.76
2018-06-15T02:23:38.563Z,15.72
2018-06-15T02:24:38.565Z,15.83
2018-06-15T02:25:38.566Z,15.75
2018-06-15T02:26:38.568Z,15.75
2018-06-15T02:27:38.570Z,15.72
2018-06-15T02:28:38.572Z,15.61
2018-06-15T02:29:38.573Z,15.67
2018-06-15T02:30:38.575Z,15.67
2018-06-15T02:31:38.577Z,15.59
2018-06-15T02:32:38.579Z,15.54
2018-06-15T02:33:38.581Z,15.52
2018-06-15T02:34:38.582Z,15.51
2018-06-15T02:35:38.584Z,15.37
2018-06-15T02:36:38.587Z,15.37
2018-06-15T02:37:38.587Z,15.39
2018-06-15T02:38:38.589Z,15.37
2018-06-15T02:39:38.591Z,15.49
2018-06-15T02:40:38.593Z,15.44
2018-06-15T02:41:38.594Z,15.36
2018-06-15T02:42:38.596Z,15.39
2018-06-15T02:43:38.598Z,15.39
2018-06-15T02:44:38.599Z,15.37
2018-06-15T02:45:38.602Z,15.42
2018-06-15T02:46:38.601Z,15.37
2018-06-15T02:47:38.605Z,15.24
2018-06-15T02:48:38.606Z,15.28
2018-06-15T02:49:38.607Z,15.25
2018-06-15T02:50:38.609Z,15.19
2018-06-15T02:51:38.609Z,15.24
2018-06-15T02:52:38.611Z,15.15
2018-06-15T02:53:38.613Z,15.15
2018-06-15T02:54:38.614Z,15.22
2018-06-15T02:55:38.616Z,15.11
2018-06-15T02:56:38.617Z,15.17
2018-06-15T02:57:38.622Z,15.17
2018-06-15T02:58:38.622Z,15.18
2018-06-15T02:59:38.622Z,15.19
2018-06-15T03:00:38.623Z,15.21
2018-06-15T03:01:38.625Z,15.27
2018-06-15T03:02:38.625Z,15.28
2018-06-15T03:03:38.627Z,15.33
2018-06-15T03:04:38.629Z,15.35
2018-06-15T03:05:38.629Z,15.39
2018-06-15T03:06:38.630Z,15.36
2018-06-15T03:07:38.633Z,15.36
2018-06-15T03:08:38.635Z,15.40
2018-06-15T03:09:38.634Z,15.47
2018-06-15T03:10:38.637Z,15.51
2018-06-15T03:11:38.638Z,15.61
2018-06-15T03:12:38.640Z,15.54
2018-06-15T03:13:38.641Z,15.61
2018-06-15T03:14:38.642Z,15.57
2018-06-15T03:15:38.643Z,15.64
2018-06-15T03:16:38.646Z,15.65
2018-06-15T03:17:38.645Z,15.68
2018-06-15T03:18:38.649Z,15.70
2018-06-15T03:19:38.650Z,15.75
2018-06-15T03:20:38.651Z,15.82
2018-06-15T03:21:38.652Z,15.80
2018-06-15T03:22:38.654Z,15.68
2018-06-15T03:23:38.656Z,15.83
2018-06-15T03:24:38.658Z,15.84
2018-06-15T03:25:38.658Z,15.90
2018-06-15T03:26:38.660Z,15.90
2018-06-15T03:27:38.662Z,15.86
2018-06-15T03:28:38.664Z,15.80
2018-06-15T03:29:38.665Z,15.88
2018-06-15T03:30:38.669Z,15.83
2018-06-15T03:31:38.673Z,15.91
2018-06-15T03:32:38.671Z,15.86
2018-06-15T03:33:38.671Z,15.90
2018-06-15T03:34:38.672Z,15.90
2018-06-15T03:35:38.675Z,15.91
2018-06-15T03:36:38.677Z,15.95
2018-06-15T03:37:38.701Z,16.08
2018-06-15T03:38:38.679Z,15.97
2018-06-15T03:39:38.682Z,16.00
2018-06-15T03:40:38.683Z,16.01
2018-06-15T03:41:38.684Z,15.97
2018-06-15T03:42:38.685Z,16.10
2018-06-15T03:43:38.688Z,16.05
2018-06-15T03:44:38.689Z,16.08
2018-06-15T03:45:38.691Z,16.08
2018-06-15T03:46:38.692Z,16.12
2018-06-15T03:47:38.695Z,16.08
2018-06-15T03:48:38.696Z,16.05
2018-06-15T03:49:38.698Z,16.17
2018-06-15T03:50:38.699Z,16.12
2018-06-15T03:51:38.704Z,16.10
2018-06-15T03:52:38.703Z,16.10
2018-06-15T03:53:38.708Z,16.09
2018-06-15T03:54:38.706Z,16.17
2018-06-15T03:55:38.708Z,16.13
2018-06-15T03:56:38.714Z,16.21
2018-06-15T03:57:38.711Z,16.13
2018-06-15T03:58:38.713Z,16.15
2018-06-15T03:59:38.716Z,16.16
2018-06-15T04:00:38.717Z,16.16
2018-06-15T04:01:38.720Z,16.17
2018-06-15T04:02:38.721Z,16.13
2018-06-15T04:03:38.722Z,16.16
2018-06-15T04:04:38.724Z,16.26
2018-06-15T04:05:38.727Z,16.32
2018-06-15T04:06:38.727Z,16.29
2018-06-15T04:07:38.785Z,16.17
2018-06-15T04:08:38.732Z,16.13
2018-06-15T04:09:38.734Z,16.17
2018-06-15T04:10:38.734Z,16.16
2018-06-15T04:11:38.737Z,16.12
2018-06-15T04:12:38.739Z,16.08
2018-06-15T04:13:38.741Z,16.05
2018-06-15T04:14:38.740Z,16.10
2018-06-15T04:15:38.750Z,16.04
2018-06-15T04:16:38.745Z,16.10
2018-06-15T04:17:38.749Z,16.08
2018-06-15T04:18:38.749Z,16.16
2018-06-15T04:19:38.752Z,16.08
2018-06-15T04:20:38.753Z,16.10
2018-06-15T04:21:38.757Z,16.02
2018-06-15T04:22:38.757Z,16.16
2018-06-15T04:23:38.758Z,16.13
2018-06-15T04:24:38.761Z,16.16
2018-06-15T04:25:38.762Z,16.29
2018-06-15T04:26:38.762Z,16.31
2018-06-15T04:27:38.766Z,16.32
2018-06-15T04:28:38.768Z,16.26
2018-06-15T04:29:38.771Z,16.28
2018-06-15T04:30:38.771Z,16.31
2018-06-15T04:31:38.773Z,16.41
2018-06-15T04:32:38.776Z,16.43
2018-06-15T04:33:38.777Z,16.43
2018-06-15T04:34:38.778Z,16.39
2018-06-15T04:35:38.781Z,16.36
2018-06-15T04:36:38.782Z,16.43
2018-06-15T04:37:38.785Z,16.47
2018-06-15T04:38:38.787Z,16.51
2018-06-15T04:39:38.789Z,16.49
2018-06-15T04:40:38.792Z,16.50
2018-06-15T04:41:38.797Z,16.51
2018-06-15T04:42:38.796Z,16.61
2018-06-15T04:43:38.798Z,16.53
2018-06-15T04:44:38.800Z,16.65
2018-06-15T04:45:38.802Z,16.64
2018-06-15T04:46:38.805Z,16.71
2018-06-15T04:47:38.806Z,16.71
2018-06-15T04:48:38.809Z,16.60
2018-06-15T04:49:38.811Z,16.65
2018-06-15T04:50:38.815Z,16.68
2018-06-15T04:51:38.816Z,16.71
2018-06-15T04:52:38.818Z,16.81
2018-06-15T04:53:38.820Z,16.87
2018-06-15T04:54:38.824Z,16.97
2018-06-15T04:55:38.825Z,17.06
2018-06-15T04:56:38.828Z,17.05
2018-06-15T04:57:38.831Z,17.08
2018-06-15T04:58:38.833Z,17.11
2018-06-15T04:59:38.836Z,17.08
2018-06-15T05:00:38.838Z,17.11
2018-06-15T05:01:38.841Z,17.23
2018-06-15T05:02:38.845Z,17.31
2018-06-15T05:03:38.846Z,17.49
2018-06-15T05:04:38.849Z,17.46
2018-06-15T05:05:38.851Z,17.54
2018-06-15T05:06:38.854Z,17.57
2018-06-15T05:07:38.862Z,17.51
2018-06-15T05:08:38.860Z,17.42
2018-06-15T05:09:38.862Z,17.45
2018-06-15T05:10:38.866Z,17.45
2018-06-15T05:11:38.869Z,17.56
2018-06-15T05:12:38.872Z,17.54
2018-06-15T05:13:38.873Z,17.52
2018-06-15T05:14:38.880Z,17.52
2018-06-15T05:15:38.883Z,17.57
2018-06-15T05:16:38.884Z,17.63
2018-06-15T05:17:38.887Z,17.56
2018-06-15T05:18:38.891Z,17.63
2018-06-15T05:19:38.893Z,17.46
2018-06-15T05:20:38.897Z,17.59
2018-06-15T05:21:38.902Z,17.70
2018-06-15T05:22:38.903Z,17.80
2018-06-15T05:23:38.906Z,17.79
2018-06-15T05:24:38.910Z,17.76
2018-06-15T05:25:38.914Z,17.78
2018-06-15T05:26:38.918Z,17.80
2018-06-15T05:27:38.920Z,17.78
2018-06-15T05:28:38.924Z,17.74
2018-06-15T05:29:38.927Z,17.67
2018-06-15T05:30:38.930Z,17.51
2018-06-15T05:31:38.935Z,17.52
2018-06-15T05:32:38.937Z,17.51
2018-06-15T05:33:38.940Z,17.42
2018-06-15T05:34:38.944Z,17.38
2018-06-15T05:35:38.948Z,17.34
2018-06-15T05:36:38.951Z,17.26
2018-06-15T05:37:38.958Z,17.30
2018-06-15T05:38:38.957Z,17.30
2018-06-15T05:39:38.962Z,17.29
2018-06-15T05:40:38.965Z,17.34
2018-06-15T05:41:38.969Z,17.26
2018-06-15T05:42:38.989Z,17.26
2018-06-15T05:43:38.974Z,17.24
2018-06-15T05:44:38.978Z,17.34
2018-06-15T05:45:38.981Z,17.30
2018-06-15T05:46:38.983Z,17.30
2018-06-15T05:47:38.987Z,17.30
2018-06-15T05:48:38.991Z,17.31
2018-06-15T05:49:38.993Z,17.39
2018-06-15T05:50:38.999Z,17.36
2018-06-15T05:51:38.999Z,17.39
2018-06-15T05:52:39.002Z,17.39
2018-06-15T05:53:39.007Z,17.27
2018-06-15T05:54:39.012Z,17.46
2018-06-15T05:55:39.043Z,17.42
2018-06-15T05:56:39.015Z,17.44
2018-06-15T05:57:39.017Z,17.42
2018-06-15T05:58:39.023Z,17.42
2018-06-15T05:59:39.024Z,17.44
2018-06-15T06:00:39.027Z,17.42
2018-06-15T06:01:39.029Z,17.44
2018-06-15T06:02:39.034Z,17.56
2018-06-15T06:03:39.036Z,17.59
2018-06-15T06:04:39.039Z,17.64
2018-06-15T06:05:39.042Z,17.74
2018-06-15T06:06:39.045Z,17.79
2018-06-15T06:07:39.048Z,17.90
2018-06-15T06:08:39.052Z,17.95
2018-06-15T06:09:39.054Z,17.92
2018-06-15T06:10:39.058Z,17.87
2018-06-15T06:11:39.062Z,17.86
2018-06-15T06:12:39.066Z,17.82
2018-06-15T06:13:39.067Z,17.80
2018-06-15T06:14:39.074Z,17.85
2018-06-15T06:15:39.075Z,17.76
2018-06-15T06:16:39.078Z,17.78
2018-06-15T06:17:39.080Z,17.82
2018-06-15T06:18:39.084Z,17.82
2018-06-15T06:19:39.088Z,17.83
2018-06-15T06:20:39.091Z,17.92
2018-06-15T06:21:39.094Z,18.04
2018-06-15T06:22:39.098Z,18.01
2018-06-15T06:23:39.101Z,18.01
2018-06-15T06:24:39.108Z,18.04
2018-06-15T06:25:39.107Z,18.23
2018-06-15T06:26:39.111Z,18.25
2018-06-15T06:27:39.117Z,18.25
2018-06-15T06:28:39.119Z,18.22
2018-06-15T06:29:39.122Z,18.35
2018-06-15T06:30:39.126Z,18.33
2018-06-15T06:31:39.130Z,18.34
2018-06-15T06:32:39.204Z,18.52
2018-06-15T06:33:39.136Z,18.63
2018-06-15T06:34:39.141Z,18.66
2018-06-15T06:35:39.146Z,18.70
2018-06-15T06:36:39.152Z,18.81
2018-06-15T06:37:39.152Z,18.92
2018-06-15T06:38:39.155Z,18.88
2018-06-15T06:39:39.161Z,18.92
2018-06-15T06:40:39.166Z,19.07
2018-06-15T06:41:39.169Z,18.93
2018-06-15T06:42:39.175Z,18.93
2018-06-15T06:43:39.185Z,18.96
2018-06-15T06:44:39.183Z,18.90
2018-06-15T06:45:39.187Z,19.02
2018-06-15T06:46:39.194Z,19.08
2018-06-15T06:47:39.196Z,18.98
2018-06-15T06:48:39.201Z,19.18
2018-06-15T06:49:39.205Z,19.39
2018-06-15T06:50:39.267Z,19.48
2018-06-15T06:51:39.219Z,19.52
2018-06-15T06:52:39.221Z,19.69
2018-06-15T06:53:39.224Z,19.64
2018-06-15T06:54:39.232Z,19.69
2018-06-15T06:55:39.236Z,19.54
2018-06-15T06:56:39.240Z,19.67
2018-06-15T06:57:39.245Z,19.59
2018-06-15T06:58:39.251Z,19.58
2018-06-15T06:59:39.255Z,19.58
2018-06-15T07:00:39.261Z,19.51
2018-06-15T07:01:39.265Z,19.29
2018-06-15T07:02:39.272Z,19.16
2018-06-15T07:03:39.277Z,19.29
2018-06-15T07:04:39.282Z,19.29
2018-06-15T07:05:39.288Z,19.39
2018-06-15T07:06:39.293Z,19.44
2018-06-15T07:07:39.298Z,19.48
2018-06-15T07:08:39.305Z,19.55
2018-06-15T07:09:39.309Z,19.54
2018-06-15T07:10:39.315Z,19.63
2018-06-15T07:11:39.321Z,19.64
2018-06-15T07:12:39.328Z,19.55
2018-06-15T07:13:39.332Z,19.64
2018-06-15T07:14:39.337Z,19.71
2018-06-15T07:15:39.344Z,19.91
2018-06-15T07:16:39.349Z,19.85
2018-06-15T07:17:39.354Z,20.04
2018-06-15T07:18:39.361Z,20.18
2018-06-15T07:19:39.367Z,20.25
2018-06-15T07:20:39.372Z,20.32
2018-06-15T07:21:39.378Z,20.32
2018-06-15T07:22:39.384Z,20.14
2018-06-15T07:23:39.442Z,20.26
2018-06-15T07:24:39.395Z,20.52
2018-06-15T07:25:39.400Z,20.82
2018-06-15T07:26:39.407Z,21.11
2018-06-15T07:27:39.418Z,21.12
2018-06-15T07:28:39.422Z,21.37
2018-06-15T07:29:39.426Z,21.42
2018-06-15T07:30:39.433Z,21.50
2018-06-15T07:31:39.442Z,22.13
2018-06-15T07:32:39.449Z,21.69
2018-06-15T07:33:39.456Z,22.07
2018-06-15T07:34:39.464Z,22.02
2018-06-15T07:35:39.472Z,21.66
2018-06-15T07:36:39.480Z,21.17
2018-06-15T07:37:39.488Z,21.39
2018-06-15T07:38:39.501Z,22.20
2018-06-15T07:39:39.506Z,22.78
2018-06-15T07:40:39.515Z,22.20
2018-06-15T07:41:39.523Z,21.66
2018-06-15T07:42:39.532Z,21.25
2018-06-15T07:43:39.542Z,21.18
2018-06-15T07:44:39.554Z,21.18
2018-06-15T07:45:39.560Z,21.12
2018-06-15T07:46:39.571Z,21.61
2018-06-15T07:47:39.577Z,22.73
2018-06-15T07:48:39.588Z,23.36
2018-06-15T07:49:39.596Z,23.78
2018-06-15T07:50:39.605Z,24.13
2018-06-15T07:51:39.615Z,24.13
2018-06-15T07:52:39.627Z,24.20
2018-06-15T07:53:39.635Z,24.39
2018-06-15T07:54:39.645Z,24.30
2018-06-15T07:55:39.656Z,23.76
2018-06-15T07:56:39.667Z,23.34
2018-06-15T07:57:39.676Z,23.48
2018-06-15T07:58:39.688Z,23.36
2018-06-15T07:59:39.703Z,23.05
2018-06-15T08:00:39.711Z,23.13
2018-06-15T08:01:39.720Z,22.80
2018-06-15T08:02:39.735Z,22.69
2018-06-15T08:03:39.746Z,22.70
2018-06-15T08:04:39.756Z,22.88
2018-06-15T08:05:39.767Z,22.85
2018-06-15T08:06:39.778Z,22.69
2018-06-15T08:07:39.793Z,22.55
2018-06-15T08:08:39.802Z,22.78
2018-06-15T08:09:39.814Z,22.45
2018-06-15T08:10:39.823Z,22.20
2018-06-15T08:11:39.836Z,22.35
2018-06-15T08:12:39.846Z,22.23
2018-06-15T08:13:39.857Z,22.43
2018-06-15T08:14:39.867Z,22.18
2018-06-15T08:15:39.877Z,21.98
2018-06-15T08:16:39.889Z,21.89
2018-06-15T08:17:39.897Z,21.91
2018-06-15T08:18:39.907Z,21.91
2018-06-15T08:19:39.918Z,21.72
2018-06-15T08:20:39.929Z,21.61
2018-06-15T08:21:39.939Z,21.64
2018-06-15T08:22:39.948Z,21.70
2018-06-15T08:23:39.959Z,21.75
2018-06-15T08:24:39.968Z,22.23
2018-06-15T08:25:39.981Z,23.50
2018-06-15T08:26:39.988Z,24.50
2018-06-15T08:27:40.048Z,24.96
2018-06-15T08:28:40.008Z,25.07
2018-06-15T08:29:40.018Z,25.17
2018-06-15T08:30:40.031Z,25.63
2018-06-15T08:31:40.038Z,25.55
2018-06-15T08:32:40.054Z,25.60
2018-06-15T08:33:40.059Z,25.85
2018-06-15T08:34:40.072Z,25.54
2018-06-15T08:35:40.083Z,26.68
2018-06-15T08:36:40.095Z,26.85
2018-06-15T08:37:40.113Z,26.60
2018-06-15T08:38:40.119Z,26.66
2018-06-15T08:39:40.132Z,26.88
2018-06-15T08:40:40.146Z,27.08
2018-06-15T08:41:40.158Z,27.18
2018-06-15T08:42:40.173Z,26.52
2018-06-15T08:43:40.186Z,26.33
2018-06-15T08:44:40.203Z,26.85
2018-06-15T08:45:40.214Z,25.87
2018-06-15T08:46:40.229Z,26.07
2018-06-15T08:47:40.242Z,26.21
2018-06-15T08:48:40.256Z,27.18
2018-06-15T08:49:40.272Z,27.74
2018-06-15T08:50:40.284Z,27.71
2018-06-15T08:51:40.299Z,27.40
2018-06-15T08:52:40.322Z,27.45
2018-06-15T08:53:40.330Z,27.45
2018-06-15T08:54:40.344Z,27.64
2018-06-15T08:55:40.358Z,26.43
2018-06-15T08:56:40.373Z,26.13
2018-06-15T08:57:40.388Z,26.15
2018-06-15T08:58:40.402Z,26.25
2018-06-15T08:59:40.417Z,25.73
2018-06-15T09:00:40.432Z,25.78
2018-06-15T09:01:40.449Z,25.88
2018-06-15T09:02:40.462Z,26.83
2018-06-15T09:03:40.475Z,26.97
2018-06-15T09:04:40.496Z,27.45
2018-06-15T09:05:40.506Z,27.70
2018-06-15T09:06:40.520Z,26.78
2018-06-15T09:07:40.536Z,26.33
2018-06-15T09:08:40.551Z,25.28
2018-06-15T09:09:40.565Z,24.84
2018-06-15T09:10:40.581Z,24.43
2018-06-15T09:11:40.595Z,24.54
2018-06-15T09:12:40.609Z,24.21
2018-06-15T09:13:40.624Z,24.73
2018-06-15T09:14:40.641Z,24.38
2018-06-15T09:15:40.659Z,24.17
2018-06-15T09:16:40.666Z,23.91
2018-06-15T09:17:40.680Z,23.55
2018-06-15T09:18:40.695Z,23.28
2018-06-15T09:19:40.710Z,23.08
2018-06-15T09:20:40.722Z,23.24
2018-06-15T09:21:40.735Z,23.51
2018-06-15T09:22:40.749Z,23.50
2018-06-15T09:23:40.763Z,23.48
2018-06-15T09:24:40.776Z,23.37
2018-06-15T09:25:40.788Z,23.23
2018-06-15T09:26:40.801Z,23.13
2018-06-15T09:27:40.815Z,22.87
2018-06-15T09:28:40.827Z,22.75
2018-06-15T09:29:40.839Z,22.70
2018-06-15T09:30:40.852Z,22.76
2018-06-15T09:31:40.865Z,22.73
2018-06-15T09:32:40.928Z,22.90
2018-06-15T09:33:40.888Z,22.98
2018-06-15T09:34:40.906Z,22.80
2018-06-15T09:35:40.913Z,23.66
2018-06-15T09:36:40.925Z,23.59
2018-06-15T09:37:40.936Z,23.59
2018-06-15T09:38:40.950Z,23.56
2018-06-15T09:39:40.961Z,24.24
2018-06-15T09:40:40.971Z,24.96
2018-06-15T09:41:40.982Z,24.17
2018-06-15T09:42:40.994Z,24.81
2018-06-15T09:43:41.007Z,24.74
2018-06-15T09:44:41.017Z,24.68
2018-06-15T09:45:41.028Z,25.51
2018-06-15T09:46:41.041Z,26.15
2018-06-15T09:47:41.052Z,26.65
2018-06-15T09:48:41.068Z,27.18
2018-06-15T09:49:41.075Z,26.99
2018-06-15T09:50:41.087Z,27.27
2018-06-15T09:51:41.103Z,26.92
2018-06-15T09:52:41.113Z,27.21
2018-06-15T09:53:41.124Z,26.93
2018-06-15T09:54:41.136Z,27.02
2018-06-15T09:55:41.150Z,26.89
2018-06-15T09:56:41.163Z,25.99
2018-06-15T09:57:41.176Z,25.75
2018-06-15T09:58:41.189Z,25.36
2018-06-15T09:59:41.202Z,25.59
2018-06-15T10:00:41.216Z,25.14
2018-06-15T10:01:41.227Z,25.07
2018-06-15T10:02:41.240Z,25.59
2018-06-15T10:03:41.254Z,25.69
2018-06-15T10:04:41.268Z,25.73
2018-06-15T10:05:41.282Z,25.46
2018-06-15T10:06:41.293Z,25.08
2018-06-15T10:07:41.310Z,24.93
2018-06-15T10:08:41.320Z,24.69
2018-06-15T10:09:41.332Z,24.81
2018-06-15T10:10:41.346Z,24.77
2018-06-15T10:11:41.359Z,24.81
2018-06-15T10:12:41.371Z,24.76
2018-06-15T10:13:41.386Z,24.53
2018-06-15T10:14:41.396Z,24.45
2018-06-15T10:15:41.410Z,24.20
2018-06-15T10:16:41.452Z,23.78
2018-06-15T10:17:41.434Z,23.65
2018-06-15T10:18:41.448Z,23.88
2018-06-15T10:19:41.462Z,24.77
2018-06-15T10:20:41.472Z,24.68
2018-06-15T10:21:41.483Z,25.46
2018-06-15T10:22:41.494Z,25.16
2018-06-15T10:23:41.508Z,25.21
2018-06-15T10:24:41.522Z,25.84
2018-06-15T10:25:41.532Z,26.43
2018-06-15T10:26:41.548Z,27.29
2018-06-15T10:27:41.556Z,27.95
2018-06-15T10:28:41.569Z,28.42
2018-06-15T10:29:41.580Z,28.76
2018-06-15T10:30:41.593Z,28.19
2018-06-15T10:31:41.606Z,27.68
2018-06-15T10:32:41.621Z,27.71
2018-06-15T10:33:41.631Z,27.68
2018-06-15T10:34:41.646Z,27.55
2018-06-15T10:35:41.658Z,27.60
2018-06-15T10:36:41.672Z,28.01
2018-06-15T10:37:41.684Z,27.90
2018-06-15T10:38:41.698Z,27.37
2018-06-15T10:39:41.713Z,27.39
2018-06-15T10:40:41.726Z,27.47
2018-06-15T10:41:41.739Z,27.71
2018-06-15T10:42:41.753Z,27.98
2018-06-15T10:43:41.767Z,28.26
2018-06-15T10:44:41.782Z,27.37
2018-06-15T10:45:41.805Z,27.25
2018-06-15T10:46:41.808Z,26.90
2018-06-15T10:47:41.823Z,27.14
2018-06-15T10:48:41.838Z,27.17
2018-06-15T10:49:41.851Z,27.30
2018-06-15T10:50:41.866Z,27.73
2018-06-15T10:51:41.881Z,27.73
2018-06-15T10:52:41.896Z,27.82
2018-06-15T10:53:41.908Z,27.82
2018-06-15T10:54:41.923Z,27.68
2018-06-15T10:55:41.937Z,27.64
2018-06-15T10:56:41.952Z,27.74
2018-06-15T10:57:41.966Z,27.74
2018-06-15T10:58:41.981Z,27.89
2018-06-15T10:59:41.995Z,27.86
2018-06-15T11:00:42.009Z,27.47
2018-06-15T11:01:42.023Z,27.71
2018-06-15T11:02:42.038Z,28.11
2018-06-15T11:03:42.053Z,28.12
2018-06-15T11:04:42.066Z,28.49
2018-06-15T11:05:42.080Z,28.64
2018-06-15T11:06:42.094Z,27.82
2018-06-15T11:07:42.113Z,27.70
2018-06-15T11:08:42.122Z,27.73
2018-06-15T11:09:42.136Z,27.87
2018-06-15T11:10:42.151Z,28.10
2018-06-15T11:11:42.164Z,27.83
2018-06-15T11:12:42.179Z,27.98
2018-06-15T11:13:42.191Z,27.80
2018-06-15T11:14:42.205Z,27.40
2018-06-15T11:15:42.219Z,26.02
2018-06-15T11:16:42.233Z,25.62
2018-06-15T11:17:42.249Z,25.36
2018-06-15T11:18:42.260Z,25.40
2018-06-15T11:19:42.274Z,25.25
2018-06-15T11:20:42.287Z,25.59
2018-06-15T11:21:42.299Z,25.84
2018-06-15T11:22:42.312Z,25.72
2018-06-15T11:23:42.326Z,25.75
2018-06-15T11:24:42.344Z,25.95
2018-06-15T11:25:42.349Z,26.13
2018-06-15T11:26:42.364Z,26.10
2018-06-15T11:27:42.377Z,26.09
2018-06-15T11:28:42.389Z,26.09
2018-06-15T11:29:42.402Z,25.96
2018-06-15T11:30:42.415Z,25.80
2018-06-15T11:31:42.426Z,25.87
2018-06-15T11:32:42.445Z,25.65
2018-06-15T11:33:42.450Z,25.35
2018-06-15T11:34:42.462Z,25.07
2018-06-15T11:35:42.475Z,25.08
2018-06-15T11:36:42.487Z,25.46
2018-06-15T11:37:42.499Z,25.62
2018-06-15T11:38:42.510Z,25.68
2018-06-15T11:39:42.522Z,25.68
2018-06-15T11:40:42.534Z,25.66
2018-06-15T11:41:42.545Z,25.18
2018-06-15T11:42:42.557Z,25.26
2018-06-15T11:43:42.569Z,25.40
2018-06-15T11:44:42.579Z,25.41
2018-06-15T11:45:42.590Z,25.48
2018-06-15T11:46:42.602Z,25.54
2018-06-15T11:47:42.613Z,25.66
2018-06-15T11:48:42.627Z,25.95
2018-06-15T11:49:42.636Z,25.99
2018-06-15T11:50:42.647Z,26.05
2018-06-15T11:51:42.657Z,25.83
2018-06-15T11:52:42.668Z,25.91
2018-06-15T11:53:42.678Z,25.91
2018-06-15T11:54:42.690Z,25.85
2018-06-15T11:55:42.702Z,25.80
2018-06-15T11:56:42.712Z,25.73
2018-06-15T11:57:42.723Z,25.75
2018-06-15T11:58:42.735Z,25.41
2018-06-15T11:59:42.744Z,25.40
2018-06-15T12:00:42.755Z,25.22
2018-06-15T12:01:42.775Z,25.16
2018-06-15T12:02:42.776Z,25.11
2018-06-15T12:03:42.790Z,25.08
2018-06-15T12:04:42.797Z,25.01
2018-06-15T12:05:42.807Z,25.07
2018-06-15T12:06:42.818Z,25.10
2018-06-15T12:07:42.828Z,25.38
2018-06-15T12:08:42.838Z,25.46
2018-06-15T12:09:42.849Z,25.58
2018-06-15T12:10:42.860Z,25.75
2018-06-15T12:11:42.870Z,25.62
2018-06-15T12:12:42.881Z,25.46
2018-06-15T12:13:42.889Z,25.46
2018-06-15T12:14:42.901Z,25.72
2018-06-15T12:15:42.910Z,25.84
2018-06-15T12:16:42.924Z,26.00
2018-06-15T12:17:42.929Z,26.02
2018-06-15T12:18:42.941Z,26.10
2018-06-15T12:19:42.954Z,26.13
2018-06-15T12:20:42.962Z,26.09
2018-06-15T12:21:42.971Z,25.91
2018-06-15T12:22:42.982Z,25.77
2018-06-15T12:23:42.992Z,25.69
2018-06-15T12:24:43.002Z,25.77
2018-06-15T12:25:43.012Z,25.66
2018-06-15T12:26:43.022Z,25.78
2018-06-15T12:27:43.032Z,25.90
2018-06-15T12:28:43.046Z,25.88
2018-06-15T12:29:43.053Z,26.02
2018-06-15T12:30:43.063Z,25.91
2018-06-15T12:31:43.074Z,26.15
2018-06-15T12:32:43.086Z,25.70
2018-06-15T12:33:43.092Z,25.85
2018-06-15T12:34:43.102Z,25.68
2018-06-15T12:35:43.113Z,25.59
2018-06-15T12:36:43.122Z,25.38
2018-06-15T12:37:43.132Z,25.55
2018-06-15T12:38:43.141Z,25.26
2018-06-15T12:39:43.150Z,25.43
2018-06-15T12:40:43.163Z,25.69
2018-06-15T12:41:43.171Z,25.81
2018-06-15T12:42:43.181Z,25.91
2018-06-15T12:43:43.191Z,26.10
2018-06-15T12:44:43.200Z,26.07
2018-06-15T12:45:43.233Z,26.09
2018-06-15T12:46:43.220Z,26.40
2018-06-15T12:47:43.228Z,26.55
2018-06-15T12:48:43.240Z,26.45
2018-06-15T12:49:43.249Z,25.77
2018-06-15T12:50:43.259Z,25.55
2018-06-15T12:51:43.272Z,25.48
2018-06-15T12:52:43.279Z,25.73